Time;durP1;ratioP1;P1;durP2;ratioP2;P2;SDS_P1;SDS_P2;PMS_P1;PMS_P2;Temp;Humidity;BMP_temperature;BMP_pressure;BME280_temperature;BME280_humidity;BME280_pressure;Samples;Min_cycle;Max_cycle;Signal;HPM_P1;HPM_P2
2022/07/19 00:00:23;;;;;;;11.50;3.90;;;23.90;99.90;;;;;;4990844;28;25093;-62
2022/07/19 00:02:48;;;;;;;6.82;4.15;;;23.70;99.90;;;;;;4995756;28;25154;-63
2022/07/19 00:05:15;;;;;;;8.60;4.63;;;23.70;99.90;;;;;;4999043;28;25093;-63
2022/07/19 00:07:41;;;;;;;10.65;4.20;;;23.70;99.90;;;;;;4996221;28;25124;-62
2022/07/19 00:10:09;;;;;;;8.52;4.50;;;23.70;99.90;;;;;;4992539;28;25142;-62
2022/07/19 00:12:35;;;;;;;10.43;4.90;;;23.60;99.90;;;;;;4996562;28;25083;-62
2022/07/19 00:15:02;;;;;;;8.82;4.50;;;23.60;99.90;;;;;;4991682;28;25148;-61
2022/07/19 00:17:28;;;;;;;11.38;4.80;;;23.50;99.90;;;;;;5005439;28;25065;-64
2022/07/19 00:19:53;;;;;;;6.10;4.32;;;23.30;99.90;;;;;;4996507;28;25068;-64
2022/07/19 00:22:19;;;;;;;10.55;4.68;;;23.20;99.90;;;;;;4992099;28;25063;-62
2022/07/19 00:24:44;;;;;;;8.82;4.45;;;23.40;99.90;;;;;;4989983;28;25134;-63
2022/07/19 00:27:10;;;;;;;7.50;4.82;;;23.30;99.90;;;;;;4997192;28;25055;-63
2022/07/19 00:29:35;;;;;;;9.02;4.85;;;23.30;99.90;;;;;;4996343;28;25093;-63
2022/07/19 00:32:01;;;;;;;8.25;4.20;;;23.20;99.90;;;;;;4987250;28;25065;-62
2022/07/19 00:34:27;;;;;;;12.02;4.85;;;23.30;99.90;;;;;;4992986;28;25072;-62
2022/07/19 00:36:52;;;;;;;14.95;5.32;;;23.20;99.90;;;;;;4985436;28;25162;-63
2022/07/19 00:39:18;;;;;;;10.23;5.28;;;23.30;99.90;;;;;;4991812;28;25067;-63
2022/07/19 00:41:44;;;;;;;9.88;4.82;;;23.30;99.90;;;;;;4999455;28;25062;-62
2022/07/19 00:44:10;;;;;;;10.73;5.22;;;23.20;99.90;;;;;;4999625;28;25152;-62
2022/07/19 00:46:36;;;;;;;9.65;5.57;;;23.10;99.90;;;;;;4998085;28;25166;-62
2022/07/19 00:49:03;;;;;;;10.77;5.15;;;23.10;99.90;;;;;;4993205;28;25158;-62
2022/07/19 00:51:29;;;;;;;11.63;5.05;;;23.10;99.90;;;;;;4993244;28;25056;-63
2022/07/19 00:53:56;;;;;;;11.52;5.30;;;23.10;99.90;;;;;;4991712;28;25063;-62
2022/07/19 00:56:24;;;;;;;8.07;4.70;;;23.10;99.90;;;;;;4988306;28;25047;-63
2022/07/19 00:58:50;;;;;;;9.90;5.13;;;23.10;99.90;;;;;;4989634;28;25055;-63
2022/07/19 01:01:15;;;;;;;11.73;5.20;;;23.10;99.90;;;;;;4979468;28;25141;-62
2022/07/19 01:03:41;;;;;;;7.65;5.10;;;23.20;99.90;;;;;;4997734;28;25078;-63
2022/07/19 01:06:08;;;;;;;9.60;4.63;;;23.30;99.90;;;;;;4995698;28;25119;-63
2022/07/19 01:08:36;;;;;;;9.18;5.55;;;23.20;99.90;;;;;;4983771;28;25132;-62
2022/07/19 01:11:04;;;;;;;10.18;5.05;;;23.20;99.90;;;;;;4994898;28;25072;-62
2022/07/19 01:13:29;;;;;;;16.05;5.40;;;23.20;99.90;;;;;;4997934;28;25067;-60
2022/07/19 01:15:55;;;;;;;14.07;5.20;;;23.20;99.90;;;;;;4994873;28;25054;-61
2022/07/19 01:18:20;;;;;;;9.57;4.82;;;23.20;99.90;;;;;;4998716;28;25050;-62
2022/07/19 01:20:46;;;;;;;13.35;5.28;;;23.10;99.90;;;;;;4986919;28;25065;-61
2022/07/19 01:23:11;;;;;;;10.27;4.40;;;23.00;99.90;;;;;;4992252;28;25052;-60
2022/07/19 01:25:37;;;;;;;11.90;5.40;;;22.90;99.90;;;;;;4986448;28;25156;-61
2022/07/19 01:28:05;;;;;;;7.93;5.40;;;22.90;99.90;;;;;;4999476;28;25131;-61
2022/07/19 01:30:30;;;;;;;10.88;5.15;;;22.90;99.90;;;;;;4984425;28;25144;-61
2022/07/19 01:32:57;;;;;;;10.95;5.05;;;22.80;99.90;;;;;;4995289;28;25052;-61
2022/07/19 01:35:23;;;;;;;12.60;5.40;;;22.80;99.90;;;;;;4988039;28;25052;-61
2022/07/19 01:37:49;;;;;;;13.65;5.90;;;22.90;99.90;;;;;;4990593;28;25048;-61
2022/07/19 01:40:16;;;;;;;9.30;5.78;;;22.90;99.90;;;;;;4978876;28;25076;-61
2022/07/19 01:42:42;;;;;;;7.28;5.18;;;22.80;99.90;;;;;;4989473;28;25103;-61
2022/07/19 01:45:09;;;;;;;9.38;4.85;;;22.70;99.90;;;;;;4994304;28;25176;-60
2022/07/19 01:47:36;;;;;;;10.07;5.72;;;22.60;99.90;;;;;;4998057;28;25063;-61
2022/07/19 01:50:02;;;;;;;13.57;6.30;;;22.60;99.90;;;;;;4988964;28;25085;-60
2022/07/19 01:52:28;;;;;;;12.45;5.97;;;22.60;99.90;;;;;;4994888;28;25069;-61
2022/07/19 01:54:53;;;;;;;10.52;5.72;;;22.60;99.90;;;;;;4997621;28;25063;-61
2022/07/19 01:57:19;;;;;;;9.00;6.03;;;22.60;99.90;;;;;;4991703;28;25073;-61
2022/07/19 01:59:45;;;;;;;15.52;6.10;;;22.50;99.90;;;;;;5005330;28;25062;-59
2022/07/19 02:02:10;;;;;;;11.05;6.28;;;22.60;99.90;;;;;;5011220;28;25058;-60
2022/07/19 02:04:36;;;;;;;13.07;6.15;;;22.50;99.90;;;;;;5002854;28;25071;-61
2022/07/19 02:07:01;;;;;;;14.63;6.88;;;22.60;99.90;;;;;;4995166;28;25067;-60
2022/07/19 02:09:27;;;;;;;12.68;6.38;;;22.60;99.90;;;;;;4991183;28;25083;-60
2022/07/19 02:11:52;;;;;;;12.55;5.93;;;22.60;99.90;;;;;;4992846;28;25054;-60
2022/07/19 02:14:18;;;;;;;12.48;6.38;;;22.60;99.90;;;;;;4998055;28;25068;-60
2022/07/19 02:16:44;;;;;;;12.23;6.38;;;22.50;99.90;;;;;;4992238;28;25144;-61
2022/07/19 02:19:10;;;;;;;8.13;6.00;;;22.50;99.90;;;;;;4991391;28;25176;-60
2022/07/19 02:21:36;;;;;;;12.32;6.32;;;22.50;99.90;;;;;;4990877;28;25102;-61
2022/07/19 02:24:03;;;;;;;12.63;6.38;;;22.50;99.90;;;;;;5000275;28;25062;-60
2022/07/19 02:26:28;;;;;;;9.10;6.53;;;22.40;99.90;;;;;;4996920;28;25071;-60
2022/07/19 02:28:54;;;;;;;14.68;6.93;;;22.40;99.90;;;;;;5001190;28;24824;-62
2022/07/19 02:31:20;;;;;;;12.65;6.45;;;22.30;99.90;;;;;;4982565;28;25136;-62
2022/07/19 02:33:46;;;;;;;12.40;6.70;;;22.30;99.90;;;;;;4993105;28;25138;-62
2022/07/19 02:36:12;;;;;;;12.30;6.30;;;22.40;99.90;;;;;;4993918;28;25077;-62
2022/07/19 02:38:37;;;;;;;7.53;6.40;;;22.30;99.90;;;;;;4989873;28;25057;-63
2022/07/19 02:41:04;;;;;;;11.30;6.72;;;22.40;99.90;;;;;;4995688;28;25053;-63
2022/07/19 02:43:29;;;;;;;10.00;6.82;;;22.40;99.90;;;;;;4987092;28;25083;-63
2022/07/19 02:45:55;;;;;;;14.73;7.20;;;22.40;99.90;;;;;;4992897;28;25103;-63
2022/07/19 02:48:20;;;;;;;12.73;6.60;;;22.40;99.90;;;;;;4990284;28;25088;-61
2022/07/19 02:50:46;;;;;;;11.95;7.25;;;22.30;99.90;;;;;;4988979;28;25064;-63
2022/07/19 02:53:12;;;;;;;8.55;6.03;;;22.30;99.90;;;;;;5002021;28;25134;-63
2022/07/19 02:55:37;;;;;;;13.48;6.78;;;22.20;99.90;;;;;;4996217;28;25078;-63
2022/07/19 02:58:03;;;;;;;12.98;6.68;;;22.10;99.90;;;;;;5001900;28;25093;-62
2022/07/19 03:00:29;;;;;;;9.90;6.60;;;22.10;99.90;;;;;;4998203;28;25097;-63
2022/07/19 03:02:54;;;;;;;12.88;7.88;;;22.10;99.90;;;;;;4992238;28;25101;-65
2022/07/19 03:05:20;;;;;;;13.68;7.07;;;22.10;99.90;;;;;;4987456;28;25089;-63
2022/07/19 03:07:46;;;;;;;9.23;6.43;;;22.10;99.90;;;;;;4989456;28;25058;-62
2022/07/19 03:10:11;;;;;;;10.15;7.25;;;22.10;99.90;;;;;;4984630;28;25077;-62
2022/07/19 03:12:37;;;;;;;10.95;6.78;;;22.00;99.90;;;;;;4998803;28;25071;-63
2022/07/19 03:15:03;;;;;;;10.48;7.35;;;22.00;99.90;;;;;;4997257;28;25094;-62
2022/07/19 03:17:28;;;;;;;14.52;8.30;;;21.90;99.90;;;;;;4996122;28;25059;-62
2022/07/19 03:19:54;;;;;;;12.05;7.75;;;22.00;99.90;;;;;;4999809;28;25065;-63
2022/07/19 03:22:19;;;;;;;10.80;7.45;;;22.00;99.90;;;;;;4995661;28;25075;-62
2022/07/19 03:24:45;;;;;;;16.92;8.20;;;22.00;99.90;;;;;;4995526;28;25077;-62
2022/07/19 03:27:11;;;;;;;11.30;7.40;;;22.00;99.90;;;;;;4993187;28;25168;-63
2022/07/19 03:29:36;;;;;;;15.05;7.45;;;21.90;99.90;;;;;;5001802;28;25068;-64
2022/07/19 03:32:02;;;;;;;12.05;6.95;;;21.90;99.90;;;;;;5004231;28;25128;-64
2022/07/19 03:34:30;;;;;;;11.10;6.65;;;21.90;99.90;;;;;;4995010;28;25066;-64
2022/07/19 03:36:56;;;;;;;11.70;7.38;;;22.00;99.90;;;;;;4993845;28;25069;-61
2022/07/19 03:39:22;;;;;;;12.98;8.20;;;22.10;99.90;;;;;;4996874;28;25059;-62
2022/07/19 03:41:47;;;;;;;13.10;6.72;;;22.10;99.90;;;;;;4999578;28;25125;-63
2022/07/19 03:44:13;;;;;;;12.73;7.05;;;22.10;99.90;;;;;;4998181;28;25098;-62
2022/07/19 03:46:39;;;;;;;15.57;7.82;;;22.10;99.90;;;;;;4991283;28;25110;-61
2022/07/19 03:49:04;;;;;;;16.02;7.32;;;22.00;99.90;;;;;;4998456;28;25069;-61
2022/07/19 03:51:30;;;;;;;11.48;7.15;;;21.90;99.90;;;;;;4999153;28;25129;-62
2022/07/19 03:53:56;;;;;;;10.02;7.60;;;21.90;99.90;;;;;;4998844;28;25066;-61
2022/07/19 03:56:22;;;;;;;10.73;6.65;;;21.90;99.90;;;;;;5004509;28;25055;-62
2022/07/19 03:58:48;;;;;;;11.77;6.65;;;21.70;99.90;;;;;;5002525;28;25149;-62
2022/07/19 04:01:14;;;;;;;10.02;7.30;;;21.70;99.90;;;;;;4998574;28;25185;-62
2022/07/19 04:03:40;;;;;;;15.57;8.10;;;21.70;99.90;;;;;;4980067;28;25103;-62
2022/07/19 04:06:06;;;;;;;19.80;7.78;;;21.70;99.90;;;;;;4980203;28;25099;-61
2022/07/19 04:08:33;;;;;;;15.63;7.97;;;21.80;99.90;;;;;;4982146;28;25059;-61
2022/07/19 04:10:58;;;;;;;15.40;7.80;;;21.70;99.90;;;;;;4980544;28;25123;-63
2022/07/19 04:13:24;;;;;;;12.32;7.60;;;21.70;99.90;;;;;;4977495;28;25120;-62
2022/07/19 04:15:49;;;;;;;9.85;8.23;;;21.60;99.90;;;;;;4982462;28;25164;-63
2022/07/19 04:18:15;;;;;;;14.10;7.72;;;21.60;99.90;;;;;;4982957;28;25060;-63
2022/07/19 04:20:41;;;;;;;14.43;8.23;;;21.60;99.90;;;;;;4986589;28;25080;-62
2022/07/19 04:23:07;;;;;;;12.30;7.50;;;21.70;99.90;;;;;;4981202;28;25118;-62
2022/07/19 04:25:32;;;;;;;15.75;9.05;;;21.70;99.90;;;;;;4988242;28;25081;-62
2022/07/19 04:27:58;;;;;;;11.77;7.85;;;21.80;99.90;;;;;;4993924;28;25066;-62
2022/07/19 04:30:23;;;;;;;12.65;7.60;;;22.00;99.90;;;;;;4986725;28;25078;-62
2022/07/19 04:32:49;;;;;;;13.40;8.32;;;21.90;99.90;;;;;;4993713;28;25068;-62
2022/07/19 04:35:16;;;;;;;10.38;7.75;;;21.80;99.90;;;;;;4995677;28;25153;-63
2022/07/19 04:37:42;;;;;;;16.23;8.68;;;21.70;99.90;;;;;;4999502;28;25064;-62
2022/07/19 04:40:09;;;;;;;11.30;7.45;;;21.80;99.90;;;;;;4993225;28;25148;-62
2022/07/19 04:42:34;;;;;;;15.13;8.38;;;21.90;99.90;;;;;;4986139;28;25127;-61
2022/07/19 04:45:00;;;;;;;16.42;8.73;;;22.00;99.90;;;;;;5004534;28;25077;-62
2022/07/19 04:47:26;;;;;;;17.40;8.63;;;22.00;99.90;;;;;;4995205;28;25095;-64
2022/07/19 04:49:51;;;;;;;12.45;8.27;;;22.00;99.90;;;;;;4991247;28;25151;-62
2022/07/19 04:52:17;;;;;;;13.85;8.52;;;22.20;99.90;;;;;;4993529;28;25169;-62
2022/07/19 04:54:42;;;;;;;14.15;8.18;;;22.30;99.90;;;;;;4994734;28;25066;-63
2022/07/19 04:57:08;;;;;;;17.65;8.38;;;22.40;99.90;;;;;;4990420;28;25075;-64
2022/07/19 04:59:33;;;;;;;17.20;8.30;;;22.50;99.90;;;;;;4998878;28;25102;-63
2022/07/19 05:01:59;;;;;;;14.70;8.43;;;22.50;99.90;;;;;;4987166;28;25107;-62
2022/07/19 05:04:24;;;;;;;17.08;8.43;;;22.40;99.90;;;;;;4992252;28;25071;-62
2022/07/19 05:06:56;;;;;;;14.63;8.38;;;22.40;99.90;;;;;;4987804;28;25136;-61
2022/07/19 05:09:22;;;;;;;15.20;8.85;;;22.50;99.90;;;;;;4976703;28;25060;-62
2022/07/19 05:11:48;;;;;;;15.85;8.88;;;22.60;99.90;;;;;;4985474;28;25073;-62
2022/07/19 05:14:13;;;;;;;17.38;9.18;;;22.70;99.90;;;;;;4980073;28;25160;-61
2022/07/19 05:16:39;;;;;;;20.25;9.80;;;22.60;99.90;;;;;;4983245;28;25062;-62
2022/07/19 05:19:05;;;;;;;16.10;9.35;;;22.60;99.90;;;;;;4990539;28;25088;-62
2022/07/19 05:21:30;;;;;;;15.95;10.05;;;22.70;99.90;;;;;;4995648;28;25077;-61
2022/07/19 05:23:56;;;;;;;14.65;9.90;;;22.70;99.90;;;;;;4991962;28;25070;-62
2022/07/19 05:26:21;;;;;;;18.63;11.50;;;22.80;99.90;;;;;;4982665;28;25069;-63
2022/07/19 05:28:47;;;;;;;15.80;11.05;;;22.80;99.90;;;;;;4991169;28;25066;-63
2022/07/19 05:31:12;;;;;;;15.65;10.07;;;22.90;99.90;;;;;;4991261;28;25054;-63
2022/07/19 05:33:38;;;;;;;16.27;10.88;;;23.00;99.90;;;;;;4995150;28;25075;-62
2022/07/19 05:36:04;;;;;;;17.00;9.68;;;23.10;99.90;;;;;;4992815;28;25052;-64
2022/07/19 05:38:34;;;;;;;16.38;10.35;;;23.20;99.90;;;;;;4992386;28;25144;-63
2022/07/19 05:41:00;;;;;;;18.17;11.02;;;23.30;99.90;;;;;;4999148;28;25087;-62
2022/07/19 05:43:25;;;;;;;17.75;11.30;;;23.50;99.90;;;;;;5007071;28;25091;-62
2022/07/19 05:45:51;;;;;;;19.92;10.95;;;23.50;99.90;;;;;;4986385;28;25153;-62
2022/07/19 05:48:16;;;;;;;17.95;12.38;;;23.60;99.90;;;;;;4981923;28;25047;-63
2022/07/19 05:50:42;;;;;;;16.63;10.60;;;23.60;99.90;;;;;;4983150;28;25147;-62
2022/07/19 05:53:08;;;;;;;20.65;10.93;;;23.70;99.90;;;;;;4983453;28;25147;-63
2022/07/19 05:55:34;;;;;;;16.27;11.75;;;23.90;99.90;;;;;;4974708;28;25071;-62
2022/07/19 05:57:59;;;;;;;18.15;11.65;;;24.00;99.90;;;;;;4986355;28;25108;-62
2022/07/19 06:00:25;;;;;;;21.58;12.75;;;24.10;99.90;;;;;;4974463;28;25092;-63
2022/07/19 06:02:50;;;;;;;17.67;12.10;;;24.10;99.90;;;;;;4991346;28;25071;-62
2022/07/19 06:05:16;;;;;;;24.00;13.05;;;24.30;99.90;;;;;;4990729;28;25133;-63
2022/07/19 06:07:42;;;;;;;19.13;12.25;;;24.40;99.90;;;;;;4983868;28;25145;-63
2022/07/19 06:10:08;;;;;;;17.52;13.40;;;24.40;99.90;;;;;;4982552;28;25081;-63
2022/07/19 06:12:33;;;;;;;18.30;12.40;;;24.60;99.90;;;;;;4992536;28;25151;-63
2022/07/19 06:14:59;;;;;;;19.45;12.82;;;24.90;99.90;;;;;;4995667;28;25063;-63
2022/07/19 06:17:24;;;;;;;19.27;13.18;;;25.00;99.90;;;;;;4990837;28;25078;-63
2022/07/19 06:19:50;;;;;;;20.70;13.70;;;25.20;99.90;;;;;;4996702;28;25061;-62
2022/07/19 06:22:15;;;;;;;21.95;13.52;;;25.30;99.90;;;;;;4980832;28;25082;-62
2022/07/19 06:24:41;;;;;;;18.70;13.45;;;25.50;99.90;;;;;;4977849;28;25094;-64
2022/07/19 06:27:06;;;;;;;22.13;13.93;;;25.60;99.90;;;;;;4982717;28;25078;-62
2022/07/19 06:29:32;;;;;;;17.48;12.75;;;25.70;99.90;;;;;;4980302;28;25107;-62
2022/07/19 06:31:57;;;;;;;22.23;13.38;;;25.60;99.90;;;;;;4980901;28;25153;-62
2022/07/19 06:34:23;;;;;;;18.45;14.30;;;25.70;99.90;;;;;;4979778;28;25143;-62
2022/07/19 06:36:49;;;;;;;23.10;13.10;;;25.80;98.10;;;;;;4988884;28;25053;-62
2022/07/19 06:39:15;;;;;;;21.05;14.30;;;25.90;99.40;;;;;;4977240;28;25064;-61
2022/07/19 06:41:40;;;;;;;22.30;12.90;;;26.10;98.00;;;;;;4984652;28;25050;-62
2022/07/19 06:44:06;;;;;;;17.90;13.45;;;26.40;99.70;;;;;;4982914;28;25145;-62
2022/07/19 06:46:31;;;;;;;18.35;12.75;;;26.60;97.60;;;;;;4985495;28;25062;-64
2022/07/19 06:48:57;;;;;;;19.38;12.95;;;26.80;97.40;;;;;;4993838;28;25089;-63
2022/07/19 06:51:22;;;;;;;24.45;12.95;;;27.00;96.70;;;;;;4983077;28;25107;-63
2022/07/19 06:53:48;;;;;;;23.58;12.55;;;27.20;96.40;;;;;;4978373;28;25079;-63
2022/07/19 06:56:14;;;;;;;15.98;11.93;;;27.40;94.30;;;;;;4979332;28;25068;-62
2022/07/19 06:58:39;;;;;;;14.30;11.32;;;27.60;93.00;;;;;;4980191;28;25131;-63
2022/07/19 07:01:05;;;;;;;19.77;13.25;;;27.80;90.70;;;;;;4980920;28;25074;-63
2022/07/19 07:03:30;;;;;;;19.90;13.32;;;27.70;89.40;;;;;;4985883;28;25145;-63
2022/07/19 07:05:56;;;;;;;18.92;12.23;;;27.90;91.30;;;;;;4997423;28;25065;-64
2022/07/19 07:08:21;;;;;;;21.85;12.32;;;28.20;91.70;;;;;;4985162;28;25093;-62
2022/07/19 07:10:47;;;;;;;20.77;12.25;;;28.20;90.00;;;;;;4987866;28;25090;-63
2022/07/19 07:13:12;;;;;;;18.58;12.40;;;28.40;89.10;;;;;;4987447;28;25158;-62
2022/07/19 07:15:38;;;;;;;16.38;12.63;;;28.40;86.10;;;;;;4995632;28;25161;-64
2022/07/19 07:18:04;;;;;;;22.77;11.85;;;28.60;86.30;;;;;;4991401;28;25076;-63
2022/07/19 07:20:30;;;;;;;21.55;12.88;;;28.80;82.60;;;;;;4982919;28;25065;-64
2022/07/19 07:22:55;;;;;;;19.83;12.55;;;29.10;75.10;;;;;;4988486;28;25074;-65
2022/07/19 07:25:21;;;;;;;15.88;11.05;;;28.90;68.40;;;;;;5005074;28;25181;-63
2022/07/19 07:27:47;;;;;;;18.75;11.80;;;29.20;73.10;;;;;;5001773;28;25126;-64
2022/07/19 07:30:12;;;;;;;15.82;10.82;;;29.10;71.00;;;;;;4992532;28;25096;-62
2022/07/19 07:32:38;;;;;;;17.88;10.73;;;29.30;72.80;;;;;;4982601;28;25092;-63
2022/07/19 07:35:04;;;;;;;26.02;10.85;;;29.20;62.20;;;;;;4982801;28;25129;-63
2022/07/19 07:37:30;;;;;;;14.23;10.00;;;29.60;66.50;;;;;;4998170;28;25068;-63
2022/07/19 07:39:55;;;;;;;16.63;10.10;;;30.00;60.30;;;;;;4989823;28;25068;-62
2022/07/19 07:42:22;;;;;;;16.40;8.25;;;30.20;57.90;;;;;;4997316;28;25059;-63
2022/07/19 07:44:47;;;;;;;13.43;8.15;;;30.30;60.90;;;;;;4984609;28;25058;-64
2022/07/19 07:47:13;;;;;;;16.55;8.93;;;30.60;54.60;;;;;;4992642;28;25133;-62
2022/07/19 07:49:39;;;;;;;17.08;9.68;;;30.80;48.00;;;;;;4998274;28;25061;-63
2022/07/19 07:52:06;;;;;;;16.42;10.57;;;30.60;44.90;;;;;;4989412;28;25092;-63
2022/07/19 07:54:33;;;;;;;16.48;8.80;;;30.70;31.30;;;;;;4995454;28;25129;-63
2022/07/19 07:56:59;;;;;;;15.13;8.18;;;30.50;28.30;;;;;;5004114;28;25048;-63
2022/07/19 07:59:24;;;;;;;14.57;7.80;;;30.70;32.30;;;;;;4998101;28;25127;-63
2022/07/19 08:01:50;;;;;;;11.15;7.55;;;30.90;31.10;;;;;;4998432;28;25101;-63
2022/07/19 08:04:15;;;;;;;13.57;6.90;;;31.20;24.40;;;;;;4985986;28;25054;-63
2022/07/19 08:06:41;;;;;;;13.93;7.35;;;31.60;21.70;;;;;;4995948;28;25137;-64
2022/07/19 08:09:07;;;;;;;17.33;7.00;;;31.70;14.20;;;;;;4990284;28;25059;-64
2022/07/19 08:11:32;;;;;;;12.10;5.97;;;31.90;9.50;;;;;;4997660;28;25124;-64
2022/07/19 08:13:58;;;;;;;14.73;5.78;;;31.80;4.50;;;;;;5001328;28;25049;-65
2022/07/19 08:16:23;;;;;;;15.30;5.75;;;31.70;12.80;;;;;;4985931;28;25107;-64
2022/07/19 08:18:49;;;;;;;13.27;5.60;;;31.80;5.80;;;;;;4998802;28;25094;-64
2022/07/19 08:21:15;;;;;;;15.20;6.07;;;31.90;9.00;;;;;;5000596;28;25137;-64
2022/07/19 08:23:41;;;;;;;12.57;4.55;;;31.40;19.10;;;;;;4999705;28;25090;-63
2022/07/19 08:26:08;;;;;;;10.02;5.10;;;31.60;28.50;;;;;;4998037;28;25081;-64
2022/07/19 08:28:34;;;;;;;12.00;5.53;;;31.90;19.80;;;;;;4997279;28;25103;-65
2022/07/19 08:30:59;;;;;;;17.58;6.40;;;31.70;11.60;;;;;;4995989;28;25093;-63
2022/07/19 08:33:25;;;;;;;8.43;4.70;;;31.40;15.90;;;;;;4996268;28;25062;-65
2022/07/19 08:35:50;;;;;;;12.00;5.10;;;31.30;25.00;;;;;;4999843;28;25075;-63
2022/07/19 08:38:16;;;;;;;14.43;5.40;;;31.10;23.10;;;;;;4987723;28;25198;-64
2022/07/19 08:40:43;;;;;;;9.82;4.63;;;31.30;23.30;;;;;;4998757;28;25050;-64
2022/07/19 08:43:09;;;;;;;11.13;4.40;;;31.30;26.40;;;;;;4996024;28;25131;-65
2022/07/19 08:45:37;;;;;;;11.18;4.68;;;31.60;26.10;;;;;;4996375;28;25063;-63
2022/07/19 08:48:05;;;;;;;12.52;4.25;;;31.70;28.40;;;;;;5002019;28;25099;-62
2022/07/19 08:50:33;;;;;;;9.20;4.30;;;31.30;31.40;;;;;;4988341;28;25076;-64
2022/07/19 08:52:59;;;;;;;9.38;5.07;;;31.50;29.40;;;;;;4999746;28;25068;-64
2022/07/19 08:55:25;;;;;;;11.55;4.75;;;31.60;30.10;;;;;;4998457;28;25065;-64
2022/07/19 08:57:57;;;;;;;9.50;4.75;;;31.70;27.30;;;;;;5000989;28;25077;-64
2022/07/19 09:00:26;;;;;;;19.05;4.97;;;31.30;31.00;;;;;;5000647;28;25093;-64
2022/07/19 09:03:02;;;;;;;9.48;5.10;;;31.00;40.40;;;;;;4996368;28;25118;-64
2022/07/19 09:05:29;;;;;;;9.93;4.03;;;30.90;44.60;;;;;;4999263;28;25092;-64
2022/07/19 09:08:15;;;;;;;10.23;4.22;;;30.90;46.70;;;;;;4997109;28;25146;-64
2022/07/19 09:11:13;;;;;;;11.82;4.35;;;31.00;43.70;;;;;;5008349;28;25105;-63
2022/07/19 09:13:30;;;;;;;18.35;4.43;;;31.30;40.30;;;;;;5005766;28;25065;-65
2022/07/19 09:15:55;;;;;;;23.95;4.25;;;31.70;32.50;;;;;;4994127;28;25140;-64
2022/07/19 09:18:26;;;;;;;8.23;4.07;;;31.70;25.50;;;;;;4995348;28;25067;-63
2022/07/19 09:20:54;;;;;;;7.30;3.90;;;31.80;26.60;;;;;;4992503;28;25100;-64
2022/07/19 09:23:20;;;;;;;7.50;3.83;;;31.70;30.00;;;;;;4999205;28;25074;-64
2022/07/19 09:25:57;;;;;;;7.05;3.55;;;31.60;32.00;;;;;;4995237;28;25093;-66
2022/07/19 09:28:24;;;;;;;8.60;3.90;;;31.80;25.10;;;;;;4998440;28;25075;-64
2022/07/19 09:30:55;;;;;;;6.75;3.38;;;32.00;24.40;;;;;;4999166;28;25044;-64
2022/07/19 09:33:24;;;;;;;25.65;4.50;;;32.10;22.40;;;;;;4995649;28;25066;-65
2022/07/19 09:36:11;;;;;;;10.23;4.40;;;32.30;18.10;;;;;;4994874;28;25063;-63
2022/07/19 09:38:39;;;;;;;8.60;3.30;;;32.40;8.00;;;;;;4978842;28;25055;-64
2022/07/19 09:41:16;;;;;;;7.20;3.38;;;32.40;12.70;;;;;;4993124;28;25133;-64
2022/07/19 09:43:59;;;;;;;7.35;3.65;;;32.30;4.60;;;;;;4997670;28;25086;-63
2022/07/19 09:46:34;;;;;;;13.35;4.07;;;32.40;6.40;;;;;;4992703;28;25085;-64
2022/07/19 09:49:13;;;;;;;7.97;3.50;;;32.60;3.90;;;;;;4991971;28;25056;-64
2022/07/19 09:51:42;;;;;;;10.68;4.38;;;32.80;4.20;;;;;;4993205;28;25068;-64
2022/07/19 09:54:09;;;;;;;28.83;4.85;;;33.40;1.00;;;;;;4996918;28;25154;-65
2022/07/19 09:56:37;;;;;;;11.85;2.80;;;33.80;1.00;;;;;;4997019;28;25139;-64
2022/07/19 09:59:04;;;;;;;6.03;3.30;;;34.10;1.00;;;;;;5004595;28;25083;-64
2022/07/19 10:01:30;;;;;;;12.50;4.18;;;34.60;1.00;;;;;;4996247;28;25056;-65
2022/07/19 10:04:02;;;;;;;12.02;3.15;;;35.20;1.00;;;;;;4996240;28;25082;-63
2022/07/19 10:06:28;;;;;;;7.80;4.53;;;35.50;1.00;;;;;;4995502;28;25149;-63
2022/07/19 10:08:57;;;;;;;7.97;3.15;;;35.00;1.00;;;;;;4991309;28;25074;-64
2022/07/19 10:11:23;;;;;;;7.07;3.38;;;34.90;1.00;;;;;;4991228;28;25103;-63
2022/07/19 10:13:50;;;;;;;9.07;3.47;;;35.30;1.00;;;;;;4997990;28;25069;-64
2022/07/19 10:16:22;;;;;;;9.35;3.55;;;35.60;1.00;;;;;;5001188;28;25076;-65
2022/07/19 10:19:16;;;;;;;11.05;3.20;;;36.00;1.00;;;;;;5014029;28;25089;-64
2022/07/19 10:21:44;;;;;;;11.50;3.67;;;36.10;1.00;;;;;;4999639;28;25065;-64
2022/07/19 10:24:10;;;;;;;7.05;3.35;;;36.30;1.00;;;;;;4996818;28;25068;-63
2022/07/19 10:26:41;;;;;;;9.35;3.83;;;36.10;1.00;;;;;;4997455;28;25142;-63
2022/07/19 10:29:11;;;;;;;8.15;3.10;;;36.40;1.00;;;;;;4993343;28;25085;-63
2022/07/19 10:31:38;;;;;;;12.40;3.50;;;36.50;1.00;;;;;;4989706;28;25066;-64
2022/07/19 10:34:06;;;;;;;5.13;2.90;;;36.70;1.00;;;;;;4987682;28;25042;-64
2022/07/19 10:36:43;;;;;;;12.23;3.42;;;36.90;1.00;;;;;;4998426;28;25061;-63
2022/07/19 10:39:18;;;;;;;10.77;3.92;;;37.20;1.00;;;;;;4996169;28;25050;-65
2022/07/19 10:42:14;;;;;;;9.77;3.45;;;37.20;1.00;;;;;;5003544;28;25062;-64
2022/07/19 10:44:55;;;;;;;8.52;3.58;;;37.20;1.00;;;;;;4999024;28;25150;-63
2022/07/19 10:47:39;;;;;;;9.88;3.92;;;37.50;1.00;;;;;;4996850;28;25132;-64
2022/07/19 10:50:09;;;;;;;11.05;3.58;;;37.40;99.90;;;;;;5000814;28;25132;-64
2022/07/19 10:52:37;;;;;;;5.20;3.35;;;36.80;1.00;;;;;;4988906;28;25130;-64
2022/07/19 10:55:22;;;;;;;8.73;3.40;;;37.30;99.90;;;;;;4995492;28;25135;-64
2022/07/19 10:58:06;;;;;;;14.85;3.92;;;37.70;99.90;;;;;;5003636;28;25114;-64
2022/07/19 11:00:40;;;;;;;8.18;3.25;;;37.60;99.90;;;;;;4986087;28;25055;-65
2022/07/19 11:03:23;;;;;;;6.13;3.05;;;37.80;99.90;;;;;;4989204;28;25084;-65
2022/07/19 11:05:54;;;;;;;11.30;3.78;;;38.10;99.90;;;;;;4996778;28;25059;-64
2022/07/19 11:08:34;;;;;;;7.20;3.15;;;37.70;99.90;;;;;;4995696;28;25084;-63
2022/07/19 11:11:07;;;;;;;12.80;3.55;;;37.80;99.90;;;;;;4994589;28;25071;-63
2022/07/19 11:13:34;;;;;;;12.95;3.20;;;37.80;99.90;;;;;;4996165;28;25060;-63
2022/07/19 11:16:01;;;;;;;7.80;3.10;;;37.90;99.90;;;;;;4993790;28;25067;-63
2022/07/19 11:18:27;;;;;;;11.63;3.25;;;38.00;99.90;;;;;;4999952;28;25074;-63
2022/07/19 11:20:57;;;;;;;10.63;3.30;;;38.20;99.90;;;;;;4996054;28;25064;-64
2022/07/19 11:23:22;;;;;;;7.28;3.15;;;38.50;99.90;;;;;;4995857;28;25091;-63
2022/07/19 11:25:50;;;;;;;5.43;3.00;;;38.60;99.90;;;;;;4985393;28;25084;-65
2022/07/19 11:28:20;;;;;;;7.35;3.17;;;38.80;99.90;;;;;;4992212;28;25055;-65
2022/07/19 11:30:46;;;;;;;8.65;3.40;;;38.90;99.90;;;;;;4997286;28;25068;-65
2022/07/19 11:33:16;;;;;;;8.70;2.75;;;39.00;99.90;;;;;;4999580;28;25156;-64
2022/07/19 11:35:56;;;;;;;8.38;3.83;;;39.00;99.90;;;;;;4992289;28;25239;-63
2022/07/19 11:38:22;;;;;;;11.30;3.07;;;39.00;99.90;;;;;;4994874;28;25065;-64
2022/07/19 11:40:48;;;;;;;4.82;3.20;;;39.10;99.90;;;;;;4992611;28;25104;-63
2022/07/19 11:43:14;;;;;;;7.82;3.33;;;39.30;99.90;;;;;;4999961;28;25148;-64
2022/07/19 11:45:48;;;;;;;10.88;3.83;;;39.50;99.90;;;;;;4997968;28;25056;-65
2022/07/19 11:48:27;;;;;;;9.50;3.35;;;39.30;99.90;;;;;;4998226;28;25110;-64
2022/07/19 11:51:02;;;;;;;6.90;2.80;;;39.20;99.90;;;;;;4998683;28;25050;-64
2022/07/19 11:53:27;;;;;;;11.45;3.60;;;39.20;99.90;;;;;;4995256;28;25167;-64
2022/07/19 11:55:53;;;;;;;8.70;3.60;;;39.30;99.90;;;;;;5003068;28;25124;-63
2022/07/19 11:58:19;;;;;;;13.68;3.20;;;39.30;99.90;;;;;;4993961;28;25164;-63
2022/07/19 12:00:45;;;;;;;9.75;3.20;;;39.50;99.90;;;;;;4988242;28;25119;-64
2022/07/19 12:03:15;;;;;;;7.72;3.00;;;39.10;99.90;;;;;;4983579;28;25082;-65
2022/07/19 12:06:01;;;;;;;11.27;3.10;;;39.30;99.90;;;;;;4995871;28;25005;-64
2022/07/19 12:08:34;;;;;;;6.32;3.10;;;39.60;99.90;;;;;;4996890;28;25146;-65
2022/07/19 12:11:00;;;;;;;8.80;2.72;;;39.50;99.90;;;;;;4991468;28;25074;-63
2022/07/19 12:13:33;;;;;;;5.32;3.05;;;39.60;99.90;;;;;;4996502;28;25141;-63
2022/07/19 12:16:07;;;;;;;11.73;3.58;;;39.90;99.90;;;;;;4997738;28;25151;-65
2022/07/19 12:18:43;;;;;;;9.48;3.17;;;39.80;99.90;;;;;;4999425;28;25090;-63
2022/07/19 12:21:27;;;;;;;4.30;2.88;;;39.80;99.90;;;;;;4991744;28;25070;-63
2022/07/19 12:24:16;;;;;;;8.05;2.90;;;39.20;99.90;;;;;;4995118;28;25135;-64
2022/07/19 12:26:57;;;;;;;7.05;2.92;;;39.60;99.90;;;;;;5000723;28;25056;-63
2022/07/19 12:29:24;;;;;;;;;;;40.00;99.90;;;;;;4997070;28;25061;-64
2022/07/19 12:31:52;;;;;;;8.93;3.10;;;39.80;99.90;;;;;;4996895;28;25048;-65
2022/07/19 12:34:18;;;;;;;6.38;2.20;;;39.30;99.90;;;;;;4997089;28;25071;-64
2022/07/19 12:36:44;;;;;;;15.55;2.70;;;39.30;99.90;;;;;;4995135;28;25171;-65
2022/07/19 12:39:27;;;;;;;10.02;2.50;;;39.60;99.90;;;;;;4999525;28;25085;-64